Time;durP1;ratioP1;P1;durP2;ratioP2;P2;SDS_P1;SDS_P2;PMS_P1;PMS_P2;Temp;Humidity;BMP_temperature;BMP_pressure;BME280_temperature;BME280_humidity;BME280_pressure;Samples;Min_cycle;Max_cycle;Signal;HPM_P1;HPM_P2
2023/09/09 00:01:29;;;;;;;6.78;4.18;;;24.20;63.60;;;;;;5016512;28;20034;-74
2023/09/09 00:03:56;;;;;;;7.35;4.93;;;24.20;63.80;;;;;;5016547;28;20022;-75
2023/09/09 00:06:22;;;;;;;6.45;4.55;;;24.20;62.90;;;;;;5016289;28;20084;-75
2023/09/09 00:08:48;;;;;;;6.95;4.43;;;24.20;62.90;;;;;;5016039;28;20030;-75
2023/09/09 00:11:14;;;;;;;8.77;4.50;;;24.20;62.90;;;;;;5015762;28;20145;-74
2023/09/09 00:13:39;;;;;;;7.10;4.10;;;24.20;62.70;;;;;;5031337;28;20046;-75
2023/09/09 00:16:06;;;;;;;5.75;4.10;;;24.20;62.90;;;;;;5016095;28;20022;-74
2023/09/09 00:18:32;;;;;;;7.60;4.22;;;24.30;62.90;;;;;;5016440;28;20037;-74
2023/09/09 00:20:57;;;;;;;6.38;4.35;;;24.30;62.70;;;;;;5016287;28;20018;-74
2023/09/09 00:23:23;;;;;;;8.00;4.75;;;24.30;62.90;;;;;;5015784;28;20026;-74
2023/09/09 00:25:49;;;;;;;6.55;4.30;;;24.20;63.20;;;;;;5015955;28;20057;-74
2023/09/09 00:28:15;;;;;;;9.57;4.38;;;24.20;63.40;;;;;;5015992;28;20378;-75
2023/09/09 00:30:42;;;;;;;8.50;4.07;;;24.20;63.30;;;;;;5016026;28;20038;-74
2023/09/09 00:33:08;;;;;;;7.93;4.68;;;24.10;63.20;;;;;;5015736;28;20021;-74
2023/09/09 00:35:37;;;;;;;7.53;4.47;;;24.10;63.40;;;;;;5015970;28;20381;-74
2023/09/09 00:38:03;;;;;;;9.43;4.43;;;24.10;63.40;;;;;;5015796;28;20022;-74
2023/09/09 00:40:29;;;;;;;8.73;4.50;;;24.10;63.40;;;;;;5015601;28;20033;-74
2023/09/09 00:42:54;;;;;;;8.70;4.20;;;24.10;63.50;;;;;;5015703;28;20022;-74
2023/09/09 00:45:20;;;;;;;9.68;4.45;;;24.00;63.80;;;;;;5015623;28;20068;-74
2023/09/09 00:47:46;;;;;;;7.30;4.30;;;24.00;64.00;;;;;;5015438;28;20018;-74
2023/09/09 00:50:13;;;;;;;5.95;4.68;;;24.10;64.00;;;;;;5014707;28;20037;-74
2023/09/09 00:52:40;;;;;;;9.57;4.57;;;24.00;64.20;;;;;;5015640;28;20017;-73
2023/09/09 00:55:07;;;;;;;9.68;4.82;;;24.00;65.20;;;;;;5015262;28;20057;-74
2023/09/09 00:57:33;;;;;;;10.68;5.18;;;23.90;64.70;;;;;;5014603;28;20101;-74
2023/09/09 01:00:07;;;;;;;8.80;4.82;;;23.80;64.80;;;;;;5012675;28;20478;-74
2023/09/09 01:02:33;;;;;;;10.13;4.60;;;23.70;65.10;;;;;;5012497;28;20101;-74
2023/09/09 01:04:59;;;;;;;5.30;4.43;;;23.70;65.20;;;;;;5013903;28;20541;-74
2023/09/09 01:07:27;;;;;;;6.88;4.40;;;23.60;65.60;;;;;;5030275;28;20060;-76
2023/09/09 01:09:52;;;;;;;8.23;4.50;;;23.50;66.10;;;;;;5014917;28;20034;-74
2023/09/09 01:12:20;;;;;;;6.63;4.68;;;23.50;66.40;;;;;;5015554;28;20026;-74
2023/09/09 01:14:46;;;;;;;8.48;4.60;;;23.40;66.40;;;;;;5014683;28;20516;-74
2023/09/09 01:17:12;;;;;;;6.07;4.45;;;23.40;66.60;;;;;;5014934;28;20026;-74
2023/09/09 01:19:38;;;;;;;5.30;4.55;;;23.40;66.80;;;;;;5015071;28;20036;-74
2023/09/09 01:22:11;;;;;;;5.75;4.43;;;23.40;66.90;;;;;;5014586;28;20097;-74
2023/09/09 01:24:38;;;;;;;7.05;4.55;;;23.30;67.10;;;;;;5014648;28;20053;-74
2023/09/09 01:27:05;;;;;;;7.93;4.90;;;23.40;66.90;;;;;;5013223;28;20042;-74
2023/09/09 01:29:31;;;;;;;10.05;4.63;;;23.30;66.80;;;;;;5012742;28;20042;-74
2023/09/09 01:31:57;;;;;;;12.25;4.50;;;23.20;67.00;;;;;;5014558;28;20152;-74
2023/09/09 01:34:22;;;;;;;8.48;4.63;;;23.30;67.50;;;;;;5014692;28;20022;-74
2023/09/09 01:36:48;;;;;;;9.68;4.45;;;23.30;67.30;;;;;;5012544;28;20025;-74
2023/09/09 01:39:14;;;;;;;9.65;5.65;;;23.30;67.20;;;;;;5013158;28;20482;-74
2023/09/09 01:41:40;;;;;;;8.77;5.20;;;23.30;67.00;;;;;;5014439;28;20018;-74
2023/09/09 01:44:06;;;;;;;7.75;5.18;;;23.30;67.10;;;;;;5014189;28;20068;-75
2023/09/09 01:46:31;;;;;;;16.13;5.20;;;23.20;67.40;;;;;;5014523;28;20065;-75
2023/09/09 01:48:57;;;;;;;9.38;5.50;;;23.10;67.80;;;;;;5014337;28;20084;-74
2023/09/09 01:51:23;;;;;;;7.30;5.55;;;23.00;68.20;;;;;;5014064;28;20029;-74
2023/09/09 01:53:49;;;;;;;6.45;5.22;;;23.00;68.50;;;;;;5014548;28;20104;-75
2023/09/09 01:56:14;;;;;;;7.75;4.78;;;22.90;68.90;;;;;;5014340;28;20097;-74
2023/09/09 01:58:40;;;;;;;6.85;5.07;;;22.80;69.30;;;;;;5012899;28;20069;-74
2023/09/09 02:01:06;;;;;;;7.80;5.28;;;22.70;69.40;;;;;;5014379;28;20084;-74
2023/09/09 02:03:32;;;;;;;8.93;5.10;;;22.80;69.60;;;;;;5014081;28;20026;-75
2023/09/09 02:05:58;;;;;;;5.65;5.03;;;22.70;69.60;;;;;;5013941;28;20022;-74
2023/09/09 02:08:24;;;;;;;5.78;5.18;;;22.70;69.60;;;;;;5014027;28;20474;-74
2023/09/09 02:10:50;;;;;;;7.07;4.93;;;22.70;69.80;;;;;;5013966;28;20054;-74
2023/09/09 02:13:16;;;;;;;9.27;5.68;;;22.60;70.10;;;;;;5013894;28;20072;-74
2023/09/09 02:15:43;;;;;;;8.35;5.18;;;22.60;70.10;;;;;;5013695;28;20121;-74
2023/09/09 02:18:09;;;;;;;9.15;5.18;;;22.50;70.00;;;;;;5013990;28;20026;-74
2023/09/09 02:20:35;;;;;;;8.00;4.68;;;22.50;70.00;;;;;;5013842;28;20034;-74
2023/09/09 02:23:00;;;;;;;6.43;4.88;;;22.40;70.30;;;;;;5013847;28;20515;-74
2023/09/09 02:25:26;;;;;;;9.80;4.78;;;22.40;70.40;;;;;;5013953;28;20490;-74
2023/09/09 02:27:52;;;;;;;7.25;5.05;;;22.40;70.50;;;;;;5013812;28;20025;-74
2023/09/09 02:30:18;;;;;;;9.65;5.20;;;22.30;70.70;;;;;;5013599;28;20044;-73
2023/09/09 02:32:45;;;;;;;7.63;4.85;;;22.30;71.10;;;;;;5013775;28;20122;-74
2023/09/09 02:35:11;;;;;;;7.68;5.07;;;22.30;71.10;;;;;;5013571;28;20103;-74
2023/09/09 02:37:37;;;;;;;10.18;5.25;;;22.30;70.90;;;;;;5013787;28;20466;-74
2023/09/09 02:40:03;;;;;;;12.00;4.88;;;22.20;71.00;;;;;;5013513;28;20030;-74
2023/09/09 02:42:29;;;;;;;5.40;4.80;;;22.20;71.20;;;;;;5013751;28;20026;-74
2023/09/09 02:44:55;;;;;;;8.70;4.95;;;22.20;71.10;;;;;;5013203;28;20029;-74
2023/09/09 02:47:21;;;;;;;10.23;5.18;;;22.20;71.20;;;;;;5013595;28;20025;-74
2023/09/09 02:49:49;;;;;;;7.47;5.50;;;22.10;71.30;;;;;;5013265;28;20501;-74
2023/09/09 02:52:15;;;;;;;8.98;4.68;;;22.10;71.50;;;;;;5012176;28;20493;-74
2023/09/09 02:54:41;;;;;;;5.85;4.70;;;22.10;71.50;;;;;;5013407;28;20049;-74
2023/09/09 02:57:07;;;;;;;11.45;4.75;;;22.00;71.50;;;;;;5013205;28;20037;-74
2023/09/09 02:59:34;;;;;;;11.02;4.57;;;22.00;71.50;;;;;;5013493;28;20021;-74
2023/09/09 03:02:00;;;;;;;8.88;5.10;;;22.00;71.80;;;;;;5013020;28;20022;-74
2023/09/09 03:04:26;;;;;;;5.72;4.88;;;22.00;71.80;;;;;;5012271;28;20026;-73
2023/09/09 03:06:52;;;;;;;6.40;5.03;;;22.00;71.70;;;;;;5013268;28;20033;-73
2023/09/09 03:09:17;;;;;;;9.80;4.72;;;21.90;71.80;;;;;;5013187;28;20028;-72
2023/09/09 03:11:43;;;;;;;6.82;5.13;;;21.90;71.80;;;;;;5013112;28;20065;-73
2023/09/09 03:14:09;;;;;;;6.28;5.50;;;21.90;72.10;;;;;;5012579;28;20048;-73
2023/09/09 03:16:38;;;;;;;6.93;5.22;;;21.80;72.30;;;;;;5012860;28;20034;-72
2023/09/09 03:19:04;;;;;;;10.02;5.55;;;21.80;72.50;;;;;;5013282;28;20010;-75
2023/09/09 03:21:30;;;;;;;7.82;4.97;;;21.80;72.90;;;;;;5011762;28;20030;-73
2023/09/09 03:23:57;;;;;;;8.55;5.05;;;21.80;72.90;;;;;;5013145;28;20044;-74
2023/09/09 03:26:23;;;;;;;9.75;5.30;;;21.70;72.90;;;;;;5013258;28;20022;-73
2023/09/09 03:28:49;;;;;;;7.25;5.07;;;21.70;73.50;;;;;;5012933;28;20049;-73
2023/09/09 03:31:15;;;;;;;11.10;5.18;;;21.70;72.80;;;;;;5012935;28;20052;-73
2023/09/09 03:33:41;;;;;;;7.70;4.80;;;21.70;72.90;;;;;;5013025;28;20026;-73
2023/09/09 03:36:07;;;;;;;8.02;5.20;;;21.70;73.10;;;;;;5028520;28;20022;-73
2023/09/09 03:38:36;;;;;;;8.50;4.75;;;21.60;73.10;;;;;;5012944;28;20022;-73
2023/09/09 03:41:06;;;;;;;6.85;4.60;;;21.60;73.30;;;;;;5013311;28;20437;-73
2023/09/09 03:43:36;;;;;;;6.18;4.90;;;21.60;73.70;;;;;;5012897;28;20049;-73
2023/09/09 03:46:02;;;;;;;8.82;4.68;;;21.60;73.70;;;;;;5012581;28;20034;-73
2023/09/09 03:48:27;;;;;;;8.07;5.13;;;21.60;73.70;;;;;;5013230;28;20044;-73
2023/09/09 03:51:02;;;;;;;5.88;4.80;;;21.50;73.90;;;;;;5012933;28;20493;-73
2023/09/09 03:53:29;;;;;;;9.25;5.03;;;21.60;74.00;;;;;;5013139;28;20482;-73
2023/09/09 03:55:55;;;;;;;8.23;5.18;;;21.50;73.70;;;;;;5012729;28;20188;-73
2023/09/09 03:58:21;;;;;;;6.65;4.38;;;21.50;73.70;;;;;;5012590;28;20054;-72
2023/09/09 04:00:47;;;;;;;9.70;4.85;;;21.50;73.80;;;;;;5012868;28;20029;-73
2023/09/09 04:03:14;;;;;;;7.93;4.85;;;21.50;73.80;;;;;;5012654;28;20026;-73
2023/09/09 04:05:40;;;;;;;7.97;4.50;;;21.60;73.50;;;;;;5012705;28;20030;-73
2023/09/09 04:08:09;;;;;;;6.72;4.30;;;21.60;73.30;;;;;;5012655;28;20022;-73
2023/09/09 04:10:36;;;;;;;6.95;4.82;;;21.60;73.30;;;;;;5027880;28;20375;-73
2023/09/09 04:13:02;;;;;;;8.05;4.20;;;21.70;73.40;;;;;;5012633;28;20026;-73
2023/09/09 04:15:27;;;;;;;6.65;4.30;;;21.70;73.30;;;;;;5012538;28;20018;-73
2023/09/09 04:17:53;;;;;;;6.50;4.80;;;21.70;73.20;;;;;;5012788;28;20038;-73
2023/09/09 04:20:19;;;;;;;5.53;4.40;;;21.70;73.40;;;;;;5012717;28;20030;-73
2023/09/09 04:22:44;;;;;;;7.93;4.50;;;21.70;73.30;;;;;;5011491;28;20049;-73
2023/09/09 04:25:10;;;;;;;8.93;4.28;;;21.70;73.20;;;;;;5013479;28;20026;-73
2023/09/09 04:27:36;;;;;;;9.25;4.97;;;21.70;73.10;;;;;;5015908;28;20022;-73
2023/09/09 04:30:02;;;;;;;9.20;4.53;;;21.70;73.20;;;;;;5015683;28;20088;-72
2023/09/09 04:32:31;;;;;;;7.63;4.55;;;21.70;73.10;;;;;;5014615;28;20018;-73
2023/09/09 04:34:57;;;;;;;9.63;4.43;;;21.70;73.10;;;;;;5015926;28;20538;-73
2023/09/09 04:37:24;;;;;;;9.95;4.50;;;21.70;72.90;;;;;;5015823;28;20025;-73
2023/09/09 04:39:50;;;;;;;10.18;4.57;;;21.70;72.90;;;;;;5015852;28;20025;-73
2023/09/09 04:42:18;;;;;;;7.78;4.63;;;21.70;72.80;;;;;;5015895;28;20096;-73
2023/09/09 04:44:44;;;;;;;12.15;4.65;;;21.70;72.90;;;;;;5015706;28;20026;-73
2023/09/09 04:47:10;;;;;;;12.77;4.78;;;21.70;72.80;;;;;;5030982;28;20025;-73
2023/09/09 04:49:35;;;;;;;7.63;4.30;;;21.60;73.10;;;;;;5015534;28;20183;-74
2023/09/09 04:52:01;;;;;;;6.63;4.07;;;21.60;73.40;;;;;;5015779;28;20033;-74
2023/09/09 04:54:27;;;;;;;11.93;5.10;;;21.50;73.50;;;;;;5015482;28;20476;-73
2023/09/09 04:56:52;;;;;;;11.13;4.70;;;21.50;73.70;;;;;;5015453;28;20029;-74
2023/09/09 04:59:18;;;;;;;6.18;4.65;;;21.50;73.80;;;;;;5030689;28;20026;-73
2023/09/09 05:01:44;;;;;;;8.38;4.30;;;21.40;73.90;;;;;;5015442;28;20025;-73
2023/09/09 05:04:10;;;;;;;6.25;4.80;;;21.40;74.00;;;;;;5015455;28;20028;-74
2023/09/09 05:06:35;;;;;;;7.13;4.53;;;21.40;73.90;;;;;;5015373;28;20105;-73
2023/09/09 05:09:01;;;;;;;7.68;4.60;;;21.40;74.00;;;;;;5015177;28;20581;-73
2023/09/09 05:11:27;;;;;;;8.80;5.20;;;21.40;74.30;;;;;;5014610;28;20052;-73
2023/09/09 05:13:53;;;;;;;8.77;4.60;;;21.30;74.40;;;;;;5015464;28;20040;-73
2023/09/09 05:16:18;;;;;;;9.93;4.93;;;21.30;75.10;;;;;;5015172;28;20022;-73
2023/09/09 05:18:44;;;;;;;9.85;4.35;;;21.40;75.30;;;;;;5013843;28;20026;-73
2023/09/09 05:21:10;;;;;;;12.48;4.70;;;21.30;75.10;;;;;;5015064;28;20018;-73
2023/09/09 05:23:36;;;;;;;8.88;4.65;;;21.40;75.30;;;;;;5015341;28;20033;-73
2023/09/09 05:26:02;;;;;;;6.95;4.78;;;21.40;75.30;;;;;;5014749;28;20033;-73
2023/09/09 05:28:28;;;;;;;12.23;5.07;;;21.40;75.50;;;;;;5014917;28;20462;-73
2023/09/09 05:30:53;;;;;;;9.80;4.60;;;21.40;75.60;;;;;;5014657;28;20041;-73
2023/09/09 05:33:19;;;;;;;6.70;4.57;;;21.50;75.70;;;;;;5014886;28;20462;-73
2023/09/09 05:35:49;;;;;;;12.43;4.95;;;21.50;75.60;;;;;;5014502;28;20422;-73
2023/09/09 05:38:15;;;;;;;8.45;4.80;;;21.50;75.70;;;;;;5014548;28;20442;-73
2023/09/09 05:40:40;;;;;;;10.50;5.10;;;21.60;76.00;;;;;;5014532;28;20044;-73
2023/09/09 05:43:06;;;;;;;12.25;5.07;;;21.60;75.80;;;;;;5014451;28;20060;-73
2023/09/09 05:45:32;;;;;;;8.85;4.43;;;21.60;75.60;;;;;;5014514;28;20030;-73
2023/09/09 05:47:58;;;;;;;8.38;4.55;;;21.60;75.40;;;;;;5014534;28;20042;-73
2023/09/09 05:50:24;;;;;;;7.32;4.47;;;21.70;75.20;;;;;;5015011;28;20084;-73
2023/09/09 05:52:49;;;;;;;13.68;5.15;;;21.70;75.10;;;;;;5014527;28;20018;-73
2023/09/09 05:55:15;;;;;;;14.60;5.60;;;21.70;75.20;;;;;;5014577;28;20532;-73
2023/09/09 05:57:41;;;;;;;17.75;5.68;;;21.70;75.70;;;;;;5012993;28;20073;-73
2023/09/09 06:00:09;;;;;;;9.18;5.03;;;21.70;75.60;;;;;;5014279;28;20018;-73
2023/09/09 06:02:34;;;;;;;8.50;4.82;;;21.80;75.30;;;;;;5014316;28;20022;-73
2023/09/09 06:05:00;;;;;;;12.70;4.50;;;21.80;75.00;;;;;;5014470;28;20030;-73
2023/09/09 06:07:26;;;;;;;14.45;5.22;;;21.80;75.30;;;;;;5014166;28;20026;-73
2023/09/09 06:09:52;;;;;;;9.07;4.57;;;21.90;75.20;;;;;;5013541;28;20026;-73
2023/09/09 06:12:17;;;;;;;10.95;4.63;;;21.90;75.10;;;;;;5029178;28;20033;-73
2023/09/09 06:14:43;;;;;;;7.45;4.53;;;22.00;75.00;;;;;;5029233;28;20022;-73
2023/09/09 06:17:09;;;;;;;9.02;4.65;;;22.00;75.10;;;;;;5013954;28;20021;-72
2023/09/09 06:19:34;;;;;;;10.90;5.07;;;22.00;75.10;;;;;;5014029;28;20390;-73
2023/09/09 06:22:00;;;;;;;6.97;4.03;;;22.10;75.10;;;;;;5013992;28;20029;-72
2023/09/09 06:24:27;;;;;;;7.15;4.45;;;22.10;75.50;;;;;;5029069;28;20026;-72
2023/09/09 06:26:53;;;;;;;15.57;4.40;;;22.10;75.50;;;;;;5013918;28;20056;-73
2023/09/09 06:29:19;;;;;;;7.20;4.50;;;22.10;75.40;;;;;;5013861;28;20444;-73
2023/09/09 06:31:44;;;;;;;12.98;5.25;;;22.20;75.90;;;;;;5029051;28;20128;-72
2023/09/09 06:34:13;;;;;;;12.45;4.75;;;22.20;76.20;;;;;;5013435;28;20465;-73
2023/09/09 06:36:39;;;;;;;6.45;4.70;;;22.30;76.10;;;;;;5013603;28;20493;-73
2023/09/09 06:39:04;;;;;;;9.18;4.75;;;22.30;75.90;;;;;;5013650;28;20057;-73
2023/09/09 06:41:30;;;;;;;10.45;4.75;;;22.40;75.90;;;;;;5012391;28;20041;-73
2023/09/09 06:43:56;;;;;;;5.65;4.82;;;22.40;75.90;;;;;;5013560;28;20121;-74
2023/09/09 06:46:22;;;;;;;8.73;5.15;;;22.50;75.50;;;;;;5013854;28;20100;-74
2023/09/09 06:48:47;;;;;;;11.80;5.20;;;22.50;75.20;;;;;;5013077;28;20387;-74
2023/09/09 06:51:13;;;;;;;5.63;4.63;;;22.60;75.30;;;;;;5013001;28;20033;-73
2023/09/09 06:53:39;;;;;;;6.65;4.70;;;22.60;75.30;;;;;;5028622;28;20037;-74
2023/09/09 06:56:05;;;;;;;11.35;5.47;;;22.60;75.30;;;;;;5013226;28;20033;-74
2023/09/09 06:58:30;;;;;;;8.80;5.13;;;22.70;75.40;;;;;;5013414;28;20097;-73
2023/09/09 07:00:56;;;;;;;7.82;4.88;;;22.70;75.40;;;;;;5013626;28;20025;-73
2023/09/09 07:03:22;;;;;;;14.73;4.70;;;22.70;75.60;;;;;;5013414;28;20099;-73
2023/09/09 07:05:48;;;;;;;9.18;4.90;;;22.80;75.40;;;;;;5013226;28;20018;-73
2023/09/09 07:08:14;;;;;;;9.57;4.97;;;22.90;75.70;;;;;;5013107;28;20095;-73
2023/09/09 07:10:51;;;;;;;10.10;4.72;;;22.90;75.50;;;;;;5013161;28;20085;-74
2023/09/09 07:13:17;;;;;;;11.40;4.20;;;23.00;74.90;;;;;;5012998;28;20022;-73
2023/09/09 07:15:43;;;;;;;9.30;4.47;;;23.00;74.10;;;;;;5013076;28;20129;-73
2023/09/09 07:18:08;;;;;;;7.40;4.68;;;23.10;73.90;;;;;;5028422;28;20077;-73
2023/09/09 07:20:34;;;;;;;6.53;4.65;;;23.10;73.90;;;;;;5028053;28;20036;-73
2023/09/09 07:23:00;;;;;;;11.48;4.47;;;23.20;74.10;;;;;;5013121;28;20022;-74
2023/09/09 07:25:25;;;;;;;10.18;4.90;;;23.20;74.40;;;;;;5013051;28;20100;-75
2023/09/09 07:27:51;;;;;;;7.90;4.82;;;23.20;74.60;;;;;;5028604;28;20057;-74
2023/09/09 07:30:18;;;;;;;8.68;5.00;;;23.30;74.60;;;;;;5012932;28;20112;-73
2023/09/09 07:32:44;;;;;;;6.55;4.72;;;23.30;74.40;;;;;;5013219;28;20049;-74
2023/09/09 07:35:10;;;;;;;11.18;4.65;;;23.40;74.10;;;;;;5013119;28;20057;-74
2023/09/09 07:37:36;;;;;;;11.05;4.20;;;23.40;73.60;;;;;;5012941;28;20018;-73
2023/09/09 07:40:01;;;;;;;7.85;4.40;;;23.50;73.20;;;;;;5013099;28;20517;-74
2023/09/09 07:42:27;;;;;;;7.45;4.03;;;23.60;73.20;;;;;;5012766;28;20022;-74
2023/09/09 07:44:53;;;;;;;6.07;4.47;;;23.60;73.50;;;;;;5028175;28;20500;-74
2023/09/09 07:47:20;;;;;;;5.20;4.65;;;23.70;73.10;;;;;;5013023;28;20019;-73
2023/09/09 07:49:46;;;;;;;12.20;4.95;;;23.80;72.80;;;;;;5012702;28;20034;-75
2023/09/09 07:52:12;;;;;;;8.70;4.70;;;23.80;72.70;;;;;;5012870;28;20022;-73
2023/09/09 07:54:38;;;;;;;14.13;5.13;;;23.90;72.40;;;;;;5012905;28;20061;-74
2023/09/09 07:57:04;;;;;;;8.68;4.45;;;24.00;72.80;;;;;;5012876;28;20018;-74
2023/09/09 07:59:30;;;;;;;8.88;4.47;;;24.00;72.70;;;;;;5028926;28;20061;-74
2023/09/09 08:01:56;;;;;;;9.10;4.55;;;24.10;72.30;;;;;;5016501;28;20101;-74
2023/09/09 08:04:22;;;;;;;7.10;4.50;;;24.20;72.30;;;;;;5016313;28;20034;-74
2023/09/09 08:06:49;;;;;;;7.32;4.47;;;24.20;71.30;;;;;;5016518;28;20018;-75
2023/09/09 08:09:14;;;;;;;6.45;4.57;;;24.30;71.20;;;;;;5016505;28;20034;-74
2023/09/09 08:11:40;;;;;;;5.32;4.10;;;24.40;71.30;;;;;;5015063;28;20079;-74
2023/09/09 08:14:06;;;;;;;5.95;4.30;;;24.50;71.50;;;;;;5016163;28;20099;-73
2023/09/09 08:16:32;;;;;;;5.90;4.28;;;24.50;71.40;;;;;;5016308;28;20061;-74
2023/09/09 08:19:00;;;;;;;8.90;4.15;;;24.60;70.10;;;;;;5016240;28;20022;-74
2023/09/09 08:21:26;;;;;;;11.43;4.15;;;24.70;69.20;;;;;;5016024;28;20053;-74
2023/09/09 08:23:52;;;;;;;10.88;4.53;;;24.70;68.70;;;;;;5015969;28;20115;-74
2023/09/09 08:26:18;;;;;;;5.75;4.43;;;24.80;67.90;;;;;;5016385;28;20030;-74
2023/09/09 08:28:44;;;;;;;10.65;4.40;;;24.90;67.10;;;;;;5016091;28;20072;-74
2023/09/09 08:31:09;;;;;;;7.88;4.07;;;24.90;65.70;;;;;;5015874;28;20038;-74
2023/09/09 08:33:35;;;;;;;9.65;3.80;;;25.00;66.20;;;;;;5015951;28;20093;-74
2023/09/09 08:36:04;;;;;;;8.02;4.07;;;25.10;66.50;;;;;;5015883;28;20106;-74
2023/09/09 08:38:31;;;;;;;5.82;4.20;;;25.10;66.30;;;;;;5015899;28;20026;-74
2023/09/09 08:41:10;;;;;;;12.27;4.18;;;25.20;66.00;;;;;;5015822;28;20030;-74
2023/09/09 08:43:36;;;;;;;17.73;4.15;;;25.20;66.10;;;;;;5014299;28;20018;-74
2023/09/09 08:46:10;;;;;;;7.38;4.03;;;25.30;65.60;;;;;;5015609;28;20101;-73
2023/09/09 08:48:37;;;;;;;5.45;4.20;;;25.40;65.00;;;;;;5014472;28;20557;-74
2023/09/09 08:51:04;;;;;;;12.27;4.00;;;25.50;65.00;;;;;;5014229;28;20045;-74
2023/09/09 08:53:31;;;;;;;8.60;3.72;;;25.50;64.40;;;;;;5014432;28;20029;-73
2023/09/09 08:55:58;;;;;;;12.32;4.47;;;25.60;64.00;;;;;;5015591;28;20058;-74
2023/09/09 08:58:25;;;;;;;5.88;4.07;;;25.70;64.10;;;;;;5015635;28;20033;-73
2023/09/09 09:00:51;;;;;;;10.20;3.92;;;25.70;63.40;;;;;;5015328;28;20113;-73
2023/09/09 09:03:19;;;;;;;5.78;4.25;;;25.80;63.10;;;;;;5015180;28;20076;-75
2023/09/09 09:05:45;;;;;;;5.55;4.25;;;25.80;62.90;;;;;;5015148;28;20497;-74
2023/09/09 09:08:11;;;;;;;7.10;3.95;;;25.90;62.00;;;;;;5015246;28;20038;-73
2023/09/09 09:10:40;;;;;;;8.73;4.20;;;26.00;61.50;;;;;;5014602;28;20104;-73
2023/09/09 09:13:06;;;;;;;8.20;4.00;;;26.00;59.90;;;;;;5014748;28;20057;-73
2023/09/09 09:15:33;;;;;;;15.65;4.93;;;26.10;60.40;;;;;;5013881;28;20041;-73
2023/09/09 09:17:59;;;;;;;8.18;4.10;;;26.10;60.60;;;;;;5015225;28;20022;-73
2023/09/09 09:20:26;;;;;;;12.25;4.50;;;26.20;60.70;;;;;;5015275;28;20478;-73
2023/09/09 09:22:55;;;;;;;8.80;4.15;;;26.20;60.50;;;;;;5015088;28;20101;-73
2023/09/09 09:25:21;;;;;;;7.05;4.10;;;26.30;59.60;;;;;;5014771;28;20030;-73
2023/09/09 09:27:47;;;;;;;11.00;4.28;;;26.30;58.80;;;;;;5014921;28;20045;-73
2023/09/09 09:30:13;;;;;;;5.85;4.18;;;26.30;59.10;;;;;;5014932;28;20038;-73
2023/09/09 09:32:42;;;;;;;12.73;4.85;;;26.40;59.60;;;;;;5014986;28;20089;-73
2023/09/09 09:35:28;;;;;;;9.77;4.03;;;26.50;59.20;;;;;;5014582;28;20140;-74
2023/09/09 09:37:57;;;;;;;6.70;3.92;;;26.50;59.30;;;;;;5014579;28;20105;-74
2023/09/09 09:40:27;;;;;;;6.30;3.80;;;26.50;57.00;;;;;;5014696;28;20114;-74
2023/09/09 09:42:54;;;;;;;16.45;3.58;;;26.60;55.40;;;;;;5014562;28;20462;-73
2023/09/09 09:45:26;;;;;;;8.50;4.10;;;26.60;54.70;;;;;;5014515;28;20030;-74
2023/09/09 09:47:53;;;;;;;11.73;3.95;;;26.70;54.30;;;;;;5013199;28;20025;-74
2023/09/09 09:50:32;;;;;;;8.07;3.63;;;26.80;53.60;;;;;;5014260;28;20063;-74
2023/09/09 09:52:59;;;;;;;6.13;3.78;;;26.80;53.60;;;;;;5014414;28;20017;-74
2023/09/09 09:55:26;;;;;;;9.50;4.45;;;26.90;55.00;;;;;;5014378;28;20026;-74
2023/09/09 09:58:01;;;;;;;7.43;3.53;;;27.00;55.40;;;;;;5014351;28;20030;-75
2023/09/09 10:00:28;;;;;;;9.18;3.85;;;27.00;53.70;;;;;;5014363;28;20090;-75
2023/09/09 10:02:56;;;;;;;9.57;3.58;;;27.00;53.60;;;;;;5014309;28;20368;-75
2023/09/09 10:05:26;;;;;;;6.95;3.30;;;27.10;52.80;;;;;;5014077;28;20075;-74
2023/09/09 10:08:20;;;;;;;11.88;4.15;;;27.20;53.70;;;;;;5014295;28;20454;-75
2023/09/09 10:11:13;;;;;;;13.00;4.18;;;27.20;53.80;;;;;;5013856;28;20495;-75
2023/09/09 10:14:20;;;;;;;8.98;3.72;;;27.30;52.60;;;;;;5012936;28;20033;-75
2023/09/09 10:16:47;;;;;;;11.27;3.40;;;27.30;52.80;;;;;;4953594;29;20027;-75
2023/09/09 10:19:14;;;;;;;9.32;3.80;;;27.40;52.80;;;;;;4953646;29;20131;-75
2023/09/09 10:21:42;;;;;;;7.57;3.55;;;27.40;51.90;;;;;;4973781;28;20038;-75
2023/09/09 10:24:09;;;;;;;12.57;3.30;;;27.50;51.40;;;;;;5012963;28;20022;-75
2023/09/09 10:26:37;;;;;;;8.07;3.88;;;27.50;52.60;;;;;;5014086;28;20026;-75
2023/09/09 10:29:04;;;;;;;9.60;3.30;;;27.60;54.30;;;;;;5013854;28;20068;-75
2023/09/09 10:31:31;;;;;;;7.13;3.70;;;27.60;53.60;;;;;;5013857;28;20509;-75
2023/09/09 10:33:58;;;;;;;4.72;3.38;;;27.70;53.00;;;;;;5013860;28;20084;-75
2023/09/09 10:36:26;;;;;;;6.18;3.90;;;27.70;52.70;;;;;;5013685;28;20026;-75
2023/09/09 10:38:58;;;;;;;6.10;3.38;;;27.80;52.80;;;;;;5013594;28;20536;-75
2023/09/09 10:41:24;;;;;;;10.43;3.33;;;27.80;53.10;;;;;;5013541;28;20026;-75
2023/09/09 10:43:50;;;;;;;6.25;3.47;;;27.90;53.00;;;;;;5013458;28;20056;-75
2023/09/09 10:46:15;;;;;;;8.40;3.70;;;27.90;51.90;;;;;;5013501;28;20026;-75
2023/09/09 10:48:44;;;;;;;9.13;3.70;;;28.00;51.80;;;;;;5012215;28;20026;-75
2023/09/09 10:51:13;;;;;;;7.40;3.55;;;28.00;51.10;;;;;;5013662;28;20120;-75
2023/09/09 10:53:39;;;;;;;5.28;3.70;;;28.00;50.90;;;;;;5013459;28;20080;-75
2023/09/09 10:56:16;;;;;;;11.02;4.43;;;28.00;51.00;;;;;;5013324;28;20478;-75
2023/09/09 10:58:44;;;;;;;6.65;4.20;;;28.10;51.00;;;;;;5013458;28;20105;-75
2023/09/09 11:01:25;;;;;;;6.30;3.38;;;28.10;52.60;;;;;;5013306;28;20022;-76
2023/09/09 11:03:51;;;;;;;5.60;3.33;;;28.20;52.70;;;;;;5013200;28;20080;-75
2023/09/09 11:06:25;;;;;;;10.65;3.53;;;28.30;52.20;;;;;;5012199;28;20129;-75
2023/09/09 11:08:56;;;;;;;10.52;3.55;;;28.40;52.30;;;;;;5013529;28;20029;-75
2023/09/09 11:11:27;;;;;;;6.03;3.28;;;28.40;51.80;;;;;;5013135;28;20089;-75
2023/09/09 11:13:53;;;;;;;;;;;28.50;50.90;;;;;;5014242;28;20052;-75
2023/09/09 11:16:34;;;;;;;7.25;3.10;;;28.50;51.00;;;;;;5013345;28;19944;-75
2023/09/09 11:19:16;;;;;;;5.13;3.85;;;28.60;51.00;;;;;;5013239;28;20053;-76
2023/09/09 11:21:47;;;;;;;6.72;3.55;;;28.60;49.80;;;;;;5013261;28;20481;-75
2023/09/09 11:24:13;;;;;;;15.95;3.72;;;28.60;49.90;;;;;;5011777;28;20058;-75
2023/09/09 11:26:43;;;;;;;5.45;3.17;;;28.60;50.20;;;;;;5013213;28;20076;-75
2023/09/09 11:29:10;;;;;;;6.20;2.95;;;28.70;51.10;;;;;;5013212;28;20054;-75
2023/09/09 11:31:35;;;;;;;8.80;3.50;;;28.80;50.80;;;;;;5012760;28;20539;-75
2023/09/09 11:34:01;;;;;;;5.13;2.92;;;28.90;50.70;;;;;;5013325;28;20030;-75
2023/09/09 11:36:29;;;;;;;7.07;2.80;;;28.90;49.90;;;;;;5016898;28;20076;-75
2023/09/09 11:38:59;;;;;;;6.10;3.72;;;29.00;49.80;;;;;;5016859;28;20022;-75
2023/09/09 11:41:31;;;;;;;8.95;3.15;;;29.00;49.30;;;;;;5016861;28;20014;-75
2023/09/09 11:44:03;;;;;;;11.35;3.17;;;29.10;49.70;;;;;;5016649;28;20022;-75
2023/09/09 11:46:43;;;;;;;9.57;3.40;;;29.10;49.50;;;;;;5016819;28;20049;-75
2023/09/09 11:49:11;;;;;;;4.78;3.60;;;29.20;49.50;;;;;;5016758;28;20022;-75
2023/09/09 11:51:37;;;;;;;6.25;3.33;;;29.20;48.90;;;;;;5016795;28;20437;-75
2023/09/09 11:54:06;;;;;;;7.78;3.55;;;29.20;48.50;;;;;;5016481;28;20097;-74
2023/09/09 11:56:33;;;;;;;8.07;3.42;;;29.20;49.20;;;;;;5016619;28;20061;-74
2023/09/09 11:59:05;;;;;;;5.72;3.17;;;29.20;49.00;;;;;;5016436;28;20073;-75
2023/09/09 12:01:46;;;;;;;10.75;3.75;;;29.30;49.30;;;;;;5016670;28;20068;-74
2023/09/09 12:04:13;;;;;;;7.47;3.30;;;29.30;49.50;;;;;;5015156;28;20121;-75
2023/09/09 12:06:42;;;;;;;5.28;3.35;;;29.40;48.20;;;;;;5015360;28;20049;-75
2023/09/09 12:09:08;;;;;;;4.72;3.42;;;29.40;48.80;;;;;;5016375;28;20521;-75
2023/09/09 12:11:35;;;;;;;13.02;3.60;;;29.50;49.00;;;;;;5016108;28;20050;-75
2023/09/09 12:14:01;;;;;;;5.60;3.55;;;29.50;48.60;;;;;;5016024;28;20527;-75
2023/09/09 12:16:33;;;;;;;4.18;3.10;;;29.50;48.00;;;;;;5016245;28;20034;-75
2023/09/09 12:18:59;;;;;;;8.27;3.60;;;29.50;47.50;;;;;;5016156;28;20029;-75
2023/09/09 12:21:24;;;;;;;9.88;3.08;;;29.50;47.90;;;;;;5016234;28;20021;-75
2023/09/09 12:23:57;;;;;;;8.05;3.90;;;29.60;48.30;;;;;;5016229;28;20056;-75
2023/09/09 12:26:23;;;;;;;10.43;3.55;;;29.70;48.80;;;;;;5015901;28;20021;-75
2023/09/09 12:29:09;;;;;;;5.85;3.05;;;29.70;48.60;;;;;;5015740;28;20149;-75
2023/09/09 12:31:49;;;;;;;11.60;3.35;;;29.70;46.70;;;;;;5015865;28;20038;-75
2023/09/09 12:34:19;;;;;;;3.67;2.90;;;29.70;47.90;;;;;;5015916;28;20467;-74
2023/09/09 12:36:47;;;;;;;6.82;3.22;;;29.70;47.70;;;;;;5016153;28;20029;-74
2023/09/09 12:39:21;;;;;;;6.07;3.00;;;29.80;48.30;;;;;;5030604;28;20389;-75
2023/09/09 12:42:03;;;;;;;4.82;2.88;;;29.80;48.20;;;;;;5015659;28;20026;-75
2023/09/09 12:44:32;;;;;;;;;;;29.80;46.40;;;;;;5015940;28;20018;-75
2023/09/09 12:47:02;;;;;;;7.90;3.50;;;29.80;47.00;;;;;;5014498;28;19913;-74